Time;durP1;ratioP1;P1;durP2;ratioP2;P2;SDS_P1;SDS_P2;PMS_P1;PMS_P2;Temp;Humidity;BMP_temperature;BMP_pressure;BME280_temperature;BME280_humidity;BME280_pressure;Samples;Min_cycle;Max_cycle;Signal;HPM_P1;HPM_P2
2021/07/21 00:00:50;;;;;;;12.63;3.77;;;23.30;99.90;;;;;;5040384;28;20191;-74
2021/07/21 00:03:18;;;;;;;17.63;3.63;;;23.30;99.90;;;;;;5039548;28;20205;-76
2021/07/21 00:05:45;;;;;;;8.83;3.20;;;23.20;99.90;;;;;;5045755;28;20274;-76
2021/07/21 00:08:11;;;;;;;11.67;3.43;;;23.20;99.90;;;;;;5057959;28;20624;-76
2021/07/21 00:10:39;;;;;;;13.00;4.53;;;23.20;99.90;;;;;;5027797;28;20271;-76
2021/07/21 00:16:00;;;;;;;13.90;3.83;;;23.20;99.90;;;;;;5046244;28;20190;-76
2021/07/21 00:18:33;;;;;;;9.70;3.60;;;23.10;99.90;;;;;;5025967;28;20187;-76
2021/07/21 00:21:00;;;;;;;9.03;3.30;;;23.10;99.90;;;;;;5040148;28;20190;-78
2021/07/21 00:23:28;;;;;;;14.53;4.03;;;22.90;99.90;;;;;;5035989;28;20922;-76
2021/07/21 00:25:56;;;;;;;13.33;3.97;;;23.00;99.90;;;;;;5043664;28;20192;-76
2021/07/21 00:28:23;;;;;;;10.73;3.30;;;23.00;99.90;;;;;;5026573;28;20227;-76
2021/07/21 00:30:49;;;;;;;8.70;3.33;;;23.00;99.90;;;;;;5045503;28;20196;-76
2021/07/21 00:33:18;;;;;;;9.43;3.43;;;22.90;99.90;;;;;;5041108;28;20222;-76
2021/07/21 00:35:45;;;;;;;10.00;3.83;;;22.90;99.90;;;;;;5056819;28;20297;-76
2021/07/21 00:38:12;;;;;;;12.50;3.40;;;23.00;99.90;;;;;;5042934;28;20210;-76
2021/07/21 00:40:39;;;;;;;14.67;3.83;;;23.00;99.90;;;;;;5043384;28;20262;-76
2021/07/21 00:43:06;;;;;;;11.20;3.33;;;23.10;99.90;;;;;;5043702;28;20207;-76
2021/07/21 00:45:32;;;;;;;10.20;3.67;;;23.10;99.90;;;;;;5054871;28;20726;-76
2021/07/21 00:47:59;;;;;;;9.73;3.57;;;23.10;99.90;;;;;;5057490;28;20996;-76
2021/07/21 00:50:27;;;;;;;8.20;3.43;;;23.10;99.90;;;;;;5041461;28;20855;-76
2021/07/21 00:52:55;;;;;;;16.00;3.70;;;23.00;99.90;;;;;;5031546;28;20312;-76
2021/07/21 00:55:22;;;;;;;12.10;3.30;;;23.10;99.90;;;;;;5044174;28;20191;-76
2021/07/21 00:57:49;;;;;;;11.13;3.27;;;23.10;99.90;;;;;;5043406;28;20284;-76
2021/07/21 01:01:05;;;;;;;9.63;3.20;;;23.10;99.90;;;;;;5024656;28;20184;-76
2021/07/21 01:03:32;;;;;;;12.83;3.57;;;23.10;99.90;;;;;;5033866;28;20691;-76
2021/07/21 01:06:01;;;;;;;9.93;3.57;;;22.90;99.90;;;;;;5023238;28;20180;-75
2021/07/21 01:08:28;;;;;;;9.10;3.50;;;23.00;99.90;;;;;;5045024;28;20643;-76
2021/07/21 01:11:33;;;;;;;9.17;3.20;;;23.10;99.90;;;;;;5025141;28;20835;-76
2021/07/21 01:14:27;;;;;;;13.10;4.00;;;23.00;99.90;;;;;;5050101;28;20188;-76
2021/07/21 01:17:13;;;;;;;12.43;3.30;;;22.90;99.90;;;;;;5043320;28;20298;-75
2021/07/21 01:20:19;;;;;;;15.07;3.43;;;22.90;99.90;;;;;;5025734;28;20606;-76
2021/07/21 01:22:54;;;;;;;11.40;3.37;;;22.90;99.90;;;;;;5024971;28;20191;-76
2021/07/21 01:25:33;;;;;;;9.60;3.17;;;23.00;99.90;;;;;;5039693;28;20233;-76
2021/07/21 01:28:02;;;;;;;12.57;3.60;;;23.00;99.90;;;;;;5039364;28;20183;-75
2021/07/21 01:30:37;;;;;;;14.45;3.40;;;23.10;99.90;;;;;;5038585;28;20647;-76
2021/07/21 01:33:13;;;;;;;9.40;2.93;;;23.10;99.90;;;;;;5034161;28;20217;-75
2021/07/21 01:36:00;;;;;;;8.87;3.17;;;23.00;99.90;;;;;;5031430;28;20187;-77
2021/07/21 01:38:36;;;;;;;14.27;3.67;;;22.90;99.90;;;;;;5027925;28;20194;-76
2021/07/21 01:41:35;;;;;;;10.90;3.23;;;22.90;99.90;;;;;;5035931;28;20291;-75
2021/07/21 01:44:13;;;;;;;12.53;3.43;;;22.90;99.90;;;;;;5040299;28;20188;-76
2021/07/21 01:46:44;;;;;;;14.13;4.00;;;23.00;99.90;;;;;;5043326;28;20627;-76
2021/07/21 01:49:11;;;;;;;17.50;3.73;;;23.00;99.90;;;;;;5041692;28;20183;-76
2021/07/21 01:51:44;;;;;;;17.60;3.67;;;23.00;99.90;;;;;;5059399;28;20180;-75
2021/07/21 01:54:12;;;;;;;11.67;3.60;;;23.00;99.90;;;;;;5048276;28;20711;-76
2021/07/21 01:56:41;;;;;;;10.03;3.53;;;23.00;99.90;;;;;;5024784;28;20785;-76
2021/07/21 01:59:09;;;;;;;13.77;3.57;;;23.00;99.90;;;;;;5039557;28;20748;-76
2021/07/21 02:01:39;;;;;;;13.30;3.53;;;23.00;99.90;;;;;;5029830;28;20524;-76
2021/07/21 02:04:07;;;;;;;12.47;3.70;;;23.00;99.90;;;;;;5023229;28;20241;-75
2021/07/21 02:06:36;;;;;;;11.93;3.37;;;23.00;99.90;;;;;;5036000;28;20191;-75
2021/07/21 02:09:11;;;;;;;13.50;3.73;;;23.00;99.90;;;;;;5019945;28;20549;-75
2021/07/21 02:11:40;;;;;;;13.17;3.30;;;23.00;99.90;;;;;;5057488;28;20865;-76
2021/07/21 02:14:08;;;;;;;13.47;3.70;;;23.00;99.90;;;;;;5040073;28;20632;-76
2021/07/21 02:16:37;;;;;;;10.57;3.87;;;22.90;99.90;;;;;;5043541;28;20241;-76
2021/07/21 02:19:07;;;;;;;15.10;3.90;;;22.90;99.90;;;;;;5041288;28;20192;-75
2021/07/21 02:21:39;;;;;;;10.30;3.30;;;23.00;99.90;;;;;;5042488;28;20686;-76
2021/07/21 02:24:09;;;;;;;10.57;3.57;;;23.00;99.90;;;;;;5025662;28;20198;-75
2021/07/21 02:26:38;;;;;;;12.53;3.67;;;22.80;99.90;;;;;;5059726;28;20699;-75
2021/07/21 02:29:07;;;;;;;13.13;3.73;;;22.80;99.90;;;;;;5057579;28;20240;-76
2021/07/21 02:31:54;;;;;;;13.33;3.37;;;22.90;99.90;;;;;;5040088;28;20329;-73
2021/07/21 02:34:23;;;;;;;12.37;3.20;;;22.90;99.90;;;;;;5036779;28;20270;-75
2021/07/21 02:36:50;;;;;;;16.97;4.10;;;22.90;99.90;;;;;;5021687;28;20214;-76
2021/07/21 02:39:16;;;;;;;14.93;3.97;;;22.90;99.90;;;;;;5047344;28;20208;-74
2021/07/21 02:41:43;;;;;;;10.80;3.80;;;22.90;99.90;;;;;;5041279;28;20278;-75
2021/07/21 02:44:10;;;;;;;10.73;3.20;;;22.90;99.90;;;;;;5024635;28;20254;-75
2021/07/21 02:46:38;;;;;;;8.10;3.00;;;22.90;99.90;;;;;;5023319;28;20207;-77
2021/07/21 02:49:05;;;;;;;18.27;4.50;;;22.90;99.90;;;;;;5042765;28;20179;-73
2021/07/21 02:51:57;;;;;;;14.10;3.53;;;22.90;99.90;;;;;;5043505;28;20183;-75
2021/07/21 02:55:05;;;;;;;9.40;3.23;;;22.90;99.90;;;;;;5043327;28;20640;-75
2021/07/21 02:58:11;;;;;;;15.57;3.50;;;22.90;99.90;;;;;;5056850;28;20180;-76
2021/07/21 03:00:38;;;;;;;12.07;3.60;;;22.90;99.90;;;;;;5027314;28;20266;-75
2021/07/21 03:03:15;;;;;;;14.00;3.90;;;22.90;99.90;;;;;;5047363;28;21619;-75
2021/07/21 03:05:45;;;;;;;16.27;3.97;;;22.90;99.90;;;;;;5041488;28;20187;-76
2021/07/21 03:08:13;;;;;;;19.83;4.20;;;23.00;99.90;;;;;;5035615;28;20552;-75
2021/07/21 03:10:42;;;;;;;10.87;3.20;;;22.90;99.90;;;;;;5042606;28;20254;-76
2021/07/21 03:13:19;;;;;;;8.80;3.37;;;22.90;99.90;;;;;;5044989;28;20214;-75
2021/07/21 03:15:48;;;;;;;18.27;3.90;;;22.90;99.90;;;;;;5045778;28;20198;-76
2021/07/21 03:18:24;;;;;;;17.80;3.97;;;22.90;99.90;;;;;;5045029;28;20912;-75
2021/07/21 03:20:54;;;;;;;14.47;3.73;;;23.00;99.90;;;;;;5048410;28;20194;-75
2021/07/21 03:23:25;;;;;;;16.00;3.83;;;23.00;99.90;;;;;;5042018;28;20275;-75
2021/07/21 03:25:56;;;;;;;11.03;3.30;;;23.00;99.90;;;;;;5025950;28;20541;-76
2021/07/21 03:28:24;;;;;;;10.27;3.53;;;23.00;99.90;;;;;;5031124;28;20278;-75
2021/07/21 03:30:53;;;;;;;12.37;3.63;;;23.00;99.90;;;;;;5025667;28;20191;-75
2021/07/21 03:33:23;;;;;;;9.47;3.70;;;23.10;99.90;;;;;;5027070;28;20566;-76
2021/07/21 03:35:51;;;;;;;9.97;3.50;;;23.00;99.90;;;;;;5027200;28;20652;-76
2021/07/21 03:38:22;;;;;;;14.13;3.70;;;23.00;99.90;;;;;;5037086;28;20195;-75
2021/07/21 03:40:53;;;;;;;12.07;3.40;;;23.00;99.90;;;;;;5043199;28;20671;-76
2021/07/21 03:43:22;;;;;;;11.70;3.60;;;23.00;99.90;;;;;;5040600;28;20307;-76
2021/07/21 03:45:50;;;;;;;18.63;4.07;;;23.10;99.90;;;;;;5028063;28;20764;-75
2021/07/21 03:48:18;;;;;;;13.97;3.73;;;23.20;99.90;;;;;;5042301;28;20215;-76
2021/07/21 03:50:46;;;;;;;16.77;4.20;;;23.20;99.90;;;;;;5030335;28;20237;-75
2021/07/21 03:53:13;;;;;;;11.40;3.90;;;23.20;99.90;;;;;;5026185;28;20216;-75
2021/07/21 03:55:41;;;;;;;11.07;3.60;;;23.20;99.90;;;;;;5046620;28;20179;-75
2021/07/21 03:58:09;;;;;;;13.93;4.03;;;23.20;99.90;;;;;;5046548;28;20172;-75
2021/07/21 04:00:35;;;;;;;13.57;4.30;;;23.20;99.90;;;;;;5061526;28;20520;-75
2021/07/21 04:03:05;;;;;;;17.53;4.43;;;23.30;99.90;;;;;;5027524;28;20227;-75
2021/07/21 04:05:33;;;;;;;21.57;4.77;;;23.30;99.90;;;;;;5043569;28;20226;-75
2021/07/21 04:08:01;;;;;;;14.30;4.57;;;23.30;99.90;;;;;;5037947;28;20196;-76
2021/07/21 04:10:31;;;;;;;11.87;3.90;;;23.40;99.90;;;;;;5037977;28;20628;-76
2021/07/21 04:13:03;;;;;;;12.80;4.70;;;23.40;99.90;;;;;;5045797;28;20207;-76
2021/07/21 04:15:30;;;;;;;18.88;4.63;;;23.50;99.90;;;;;;5025598;28;20211;-75
2021/07/21 04:17:58;;;;;;;14.68;4.28;;;23.50;99.90;;;;;;5042937;28;20190;-76
2021/07/21 04:20:27;;;;;;;16.93;4.50;;;23.60;99.90;;;;;;5060568;28;20274;-74
2021/07/21 04:22:56;;;;;;;14.70;4.13;;;23.60;99.90;;;;;;5045425;28;20187;-75
2021/07/21 04:25:23;;;;;;;16.75;4.40;;;23.70;99.90;;;;;;5029153;28;20223;-73
2021/07/21 04:27:51;;;;;;;14.18;4.40;;;23.70;99.90;;;;;;5048075;28;20700;-73
2021/07/21 04:30:17;;;;;;;13.90;4.40;;;23.80;99.90;;;;;;5041751;28;20190;-73
2021/07/21 04:32:45;;;;;;;11.23;4.35;;;23.80;99.90;;;;;;5046184;28;20227;-76
2021/07/21 04:35:12;;;;;;;15.38;4.25;;;23.80;99.90;;;;;;5044866;28;20198;-75
2021/07/21 04:37:42;;;;;;;13.00;4.35;;;23.90;99.90;;;;;;5041900;28;20184;-75
2021/07/21 04:40:15;;;;;;;13.05;4.28;;;24.00;99.90;;;;;;5038606;28;20244;-75
2021/07/21 04:42:43;;;;;;;15.63;4.45;;;24.00;99.90;;;;;;5048467;28;20619;-76
2021/07/21 04:45:11;;;;;;;16.85;5.13;;;24.00;99.90;;;;;;5042139;28;20659;-75
2021/07/21 04:47:39;;;;;;;15.27;4.60;;;24.10;99.90;;;;;;5046128;28;20179;-76
2021/07/21 04:50:10;;;;;;;18.08;4.88;;;24.10;99.90;;;;;;5061866;28;20175;-75
2021/07/21 04:52:37;;;;;;;14.23;3.88;;;24.20;99.90;;;;;;5041746;28;20204;-73
2021/07/21 04:55:06;;;;;;;9.40;3.80;;;24.20;99.90;;;;;;5028598;28;20187;-73
2021/07/21 04:57:32;;;;;;;12.82;4.20;;;24.20;99.90;;;;;;5028730;28;20180;-73
2021/07/21 04:59:59;;;;;;;13.82;4.57;;;24.20;99.90;;;;;;5027196;28;20184;-74
2021/07/21 05:02:25;;;;;;;13.77;4.38;;;24.20;99.90;;;;;;5026220;28;20188;-74
2021/07/21 05:04:52;;;;;;;16.80;4.18;;;24.20;99.90;;;;;;5045814;28;20568;-73
2021/07/21 05:07:18;;;;;;;17.50;4.32;;;24.20;99.90;;;;;;5060673;28;20191;-73
2021/07/21 05:09:45;;;;;;;20.30;4.72;;;24.30;99.90;;;;;;5037736;28;20215;-73
2021/07/21 05:12:11;;;;;;;17.13;4.68;;;24.30;99.90;;;;;;5041768;28;20974;-73
2021/07/21 05:14:38;;;;;;;14.02;4.57;;;24.30;99.90;;;;;;5043856;28;20609;-74
2021/07/21 05:17:04;;;;;;;14.13;4.47;;;24.40;99.90;;;;;;5044633;28;20210;-73
2021/07/21 05:19:32;;;;;;;21.50;5.15;;;24.40;99.90;;;;;;5043785;28;20854;-73
2021/07/21 05:21:59;;;;;;;18.90;5.68;;;24.50;99.90;;;;;;5027803;28;20179;-73
2021/07/21 05:24:25;;;;;;;12.75;4.40;;;24.50;99.90;;;;;;5044542;28;20733;-73
2021/07/21 05:26:52;;;;;;;16.45;4.95;;;24.60;99.90;;;;;;5045356;28;20186;-73
2021/07/21 05:29:18;;;;;;;16.73;4.68;;;24.60;99.90;;;;;;5043404;28;20214;-73
2021/07/21 05:31:45;;;;;;;16.95;4.53;;;24.60;99.90;;;;;;5029748;28;20325;-73
2021/07/21 05:34:11;;;;;;;23.02;5.32;;;24.60;99.90;;;;;;5042785;28;20552;-73
2021/07/21 05:36:39;;;;;;;15.40;5.20;;;24.70;99.90;;;;;;5041996;28;20187;-73
2021/07/21 05:39:09;;;;;;;15.90;4.97;;;24.70;99.90;;;;;;5043641;28;20198;-73
2021/07/21 05:41:36;;;;;;;16.95;5.07;;;24.70;99.90;;;;;;5014562;28;20180;-73
2021/07/21 05:44:03;;;;;;;15.35;4.68;;;24.70;99.90;;;;;;5042681;28;20199;-73
2021/07/21 05:46:30;;;;;;;16.00;5.38;;;24.70;99.90;;;;;;5024837;28;20208;-72
2021/07/21 05:48:56;;;;;;;16.48;5.40;;;24.80;99.90;;;;;;5048164;28;20275;-73
2021/07/21 05:51:23;;;;;;;15.60;5.63;;;24.90;99.90;;;;;;5025356;28;20619;-73
2021/07/21 05:53:49;;;;;;;12.98;4.35;;;24.90;99.90;;;;;;5023180;28;20200;-74
2021/07/21 05:56:16;;;;;;;14.18;4.72;;;25.00;99.90;;;;;;5040081;28;20183;-73
2021/07/21 05:58:42;;;;;;;16.38;4.43;;;25.10;99.90;;;;;;5039004;28;20298;-73
2021/07/21 06:01:12;;;;;;;17.92;5.53;;;25.10;99.90;;;;;;5038415;28;20185;-73
2021/07/21 06:03:39;;;;;;;14.30;4.50;;;25.10;99.90;;;;;;5058203;28;20265;-74
2021/07/21 06:06:08;;;;;;;21.17;4.55;;;25.10;99.90;;;;;;5058004;28;20698;-73
2021/07/21 06:08:35;;;;;;;17.58;5.07;;;25.10;99.90;;;;;;5022305;28;20210;-74
2021/07/21 06:11:01;;;;;;;12.75;4.45;;;25.10;99.90;;;;;;5038307;28;20274;-73
2021/07/21 06:13:29;;;;;;;11.38;4.18;;;25.10;99.90;;;;;;5036366;28;20666;-73
2021/07/21 06:15:56;;;;;;;16.02;4.60;;;25.10;99.90;;;;;;5041604;28;20176;-73
2021/07/21 06:18:24;;;;;;;14.98;4.10;;;25.10;99.90;;;;;;5040893;28;20596;-73
2021/07/21 06:20:50;;;;;;;12.75;5.05;;;25.20;99.90;;;;;;5058611;28;20198;-73
2021/07/21 06:23:18;;;;;;;17.40;5.13;;;25.30;99.90;;;;;;5043083;28;20226;-73
2021/07/21 06:25:45;;;;;;;16.38;4.68;;;25.30;99.90;;;;;;5056978;28;20227;-74
2021/07/21 06:28:12;;;;;;;12.43;4.38;;;25.40;99.90;;;;;;5043297;28;20282;-73
2021/07/21 06:30:38;;;;;;;15.25;4.30;;;25.60;99.90;;;;;;5043650;28;20188;-73
2021/07/21 06:33:05;;;;;;;14.80;4.47;;;25.70;99.90;;;;;;5025021;28;20200;-73
2021/07/21 06:35:31;;;;;;;10.25;4.03;;;25.70;99.90;;;;;;5046270;28;20249;-74
2021/07/21 06:37:57;;;;;;;14.57;4.57;;;25.80;99.90;;;;;;5048101;28;20966;-73
2021/07/21 06:40:24;;;;;;;13.30;4.35;;;25.80;99.90;;;;;;5030878;28;20186;-73
2021/07/21 06:42:50;;;;;;;15.05;5.07;;;25.90;99.90;;;;;;5056231;28;20199;-73
2021/07/21 06:45:17;;;;;;;15.38;4.47;;;25.80;99.90;;;;;;5025404;28;20195;-73
2021/07/21 06:47:43;;;;;;;16.45;4.40;;;26.00;99.90;;;;;;5045151;28;20198;-74
2021/07/21 06:50:10;;;;;;;16.58;5.05;;;26.00;99.90;;;;;;5043288;28;20177;-73
2021/07/21 06:52:37;;;;;;;13.35;4.15;;;25.90;99.90;;;;;;5046750;28;20257;-73
2021/07/21 06:55:05;;;;;;;14.40;4.60;;;25.90;99.90;;;;;;5045305;28;20250;-73
2021/07/21 06:57:32;;;;;;;14.82;3.67;;;26.10;99.90;;;;;;5045489;28;20226;-73
2021/07/21 06:59:58;;;;;;;19.00;4.95;;;26.20;99.90;;;;;;5043284;28;20186;-75
2021/07/21 07:02:24;;;;;;;11.55;4.80;;;26.40;99.90;;;;;;5044076;28;20214;-73
2021/07/21 07:04:51;;;;;;;15.90;4.85;;;26.40;99.90;;;;;;5027175;28;20191;-73
2021/07/21 07:07:18;;;;;;;13.00;4.93;;;26.40;99.90;;;;;;5061609;28;20188;-72
2021/07/21 07:09:44;;;;;;;13.93;4.28;;;26.40;99.90;;;;;;5044196;28;20191;-73
2021/07/21 07:12:12;;;;;;;13.57;4.90;;;26.40;99.90;;;;;;5047293;28;20203;-73
2021/07/21 07:14:39;;;;;;;15.85;4.85;;;26.30;99.90;;;;;;5038987;28;20218;-74
2021/07/21 07:17:05;;;;;;;16.02;4.85;;;26.40;99.90;;;;;;5039839;28;20188;-73
2021/07/21 07:19:32;;;;;;;18.40;4.80;;;26.40;99.90;;;;;;5027073;28;20180;-73
2021/07/21 07:22:01;;;;;;;13.82;4.38;;;26.50;99.90;;;;;;5046157;28;20211;-73
2021/07/21 07:24:29;;;;;;;17.05;4.68;;;26.60;99.90;;;;;;5045135;28;20278;-73
2021/07/21 07:27:03;;;;;;;11.15;4.35;;;26.70;99.90;;;;;;5042025;28;20176;-74
2021/07/21 07:29:30;;;;;;;14.15;4.72;;;26.70;99.90;;;;;;5061876;28;20179;-73
2021/07/21 07:31:56;;;;;;;15.48;4.32;;;26.70;99.90;;;;;;5042876;28;20201;-73
2021/07/21 07:34:23;;;;;;;16.13;4.35;;;26.70;99.90;;;;;;5041783;28;20231;-74
2021/07/21 07:36:49;;;;;;;17.35;4.47;;;26.90;99.90;;;;;;5043445;28;20208;-73
2021/07/21 07:39:16;;;;;;;14.23;4.32;;;26.80;99.90;;;;;;5048681;28;20175;-73
2021/07/21 07:41:43;;;;;;;14.73;4.45;;;26.70;99.90;;;;;;5045026;28;20195;-73
2021/07/21 07:44:11;;;;;;;12.00;3.65;;;26.70;99.90;;;;;;5036842;28;20190;-73
2021/07/21 07:46:38;;;;;;;16.40;4.20;;;27.00;99.90;;;;;;5035743;28;20291;-73
2021/07/21 07:49:07;;;;;;;13.15;4.22;;;27.20;99.90;;;;;;5056143;28;20234;-73
2021/07/21 07:51:35;;;;;;;13.35;4.57;;;27.30;99.90;;;;;;5023480;28;20192;-73
2021/07/21 07:54:03;;;;;;;15.30;3.70;;;27.50;99.90;;;;;;5045457;28;20230;-73
2021/07/21 07:56:31;;;;;;;14.45;3.75;;;27.40;99.90;;;;;;5029000;28;20215;-74
2021/07/21 07:58:58;;;;;;;10.80;3.80;;;27.50;99.90;;;;;;5044758;28;20254;-74
2021/07/21 08:01:26;;;;;;;13.90;4.07;;;27.50;99.90;;;;;;5024735;28;20567;-75
2021/07/21 08:03:52;;;;;;;12.38;3.83;;;27.40;99.90;;;;;;5039499;28;20192;-73
2021/07/21 08:06:18;;;;;;;14.75;4.03;;;27.30;99.90;;;;;;5026010;28;20199;-72
2021/07/21 08:08:45;;;;;;;10.65;3.97;;;27.60;99.90;;;;;;5045928;28;20586;-73
2021/07/21 08:11:12;;;;;;;14.43;4.00;;;27.70;99.90;;;;;;5040359;28;20219;-73
2021/07/21 08:13:40;;;;;;;17.63;3.80;;;27.50;99.90;;;;;;5061424;28;20294;-73
2021/07/21 08:16:08;;;;;;;14.07;3.85;;;27.40;99.90;;;;;;5034857;28;20199;-73
2021/07/21 08:18:36;;;;;;;18.38;3.72;;;27.40;99.90;;;;;;5043994;28;20194;-75
2021/07/21 08:21:03;;;;;;;9.73;3.38;;;27.30;99.90;;;;;;5025158;28;20191;-75
2021/07/21 08:23:29;;;;;;;9.27;3.33;;;27.30;99.90;;;;;;5043670;28;20189;-73
2021/07/21 08:25:56;;;;;;;11.60;3.53;;;27.40;99.90;;;;;;5042699;28;20195;-75
2021/07/21 08:28:22;;;;;;;12.15;3.45;;;27.50;99.90;;;;;;5044133;28;20188;-75
2021/07/21 08:30:49;;;;;;;13.00;3.53;;;27.70;99.90;;;;;;5027139;28;20244;-73
2021/07/21 08:33:15;;;;;;;10.82;3.15;;;27.90;99.90;;;;;;5023393;28;20269;-75
2021/07/21 08:35:44;;;;;;;11.15;3.97;;;27.90;99.90;;;;;;5032738;28;20186;-73
2021/07/21 08:38:12;;;;;;;13.52;3.90;;;28.10;99.90;;;;;;5043304;28;20183;-75
2021/07/21 08:40:40;;;;;;;12.32;3.50;;;28.30;99.90;;;;;;5042637;28;20198;-73
2021/07/21 08:43:09;;;;;;;14.60;4.50;;;28.30;99.90;;;;;;5059443;28;20286;-74
2021/07/21 08:45:36;;;;;;;13.52;3.95;;;28.20;99.90;;;;;;5039552;28;20203;-74
2021/07/21 08:48:04;;;;;;;10.82;4.30;;;28.10;99.90;;;;;;5045326;28;20208;-74
2021/07/21 08:50:31;;;;;;;10.48;3.70;;;28.40;99.90;;;;;;5038554;28;20188;-75
2021/07/21 08:53:00;;;;;;;14.20;4.32;;;28.40;99.90;;;;;;5047428;28;20199;-73
2021/07/21 08:55:30;;;;;;;17.20;4.10;;;28.30;99.90;;;;;;5057914;28;20180;-74
2021/07/21 08:57:57;;;;;;;16.83;5.10;;;28.40;99.90;;;;;;5027459;28;20182;-74
2021/07/21 09:00:24;;;;;;;16.15;4.13;;;28.40;99.90;;;;;;5040932;28;21032;-73
2021/07/21 09:02:53;;;;;;;15.75;4.68;;;28.50;99.90;;;;;;5041756;28;20210;-74
2021/07/21 09:05:20;;;;;;;13.32;4.10;;;28.60;99.90;;;;;;5025324;28;20180;-74
2021/07/21 09:07:47;;;;;;;14.13;4.07;;;28.70;99.90;;;;;;5022377;28;20921;-73
2021/07/21 09:10:19;;;;;;;14.35;4.22;;;28.70;99.90;;;;;;5059398;28;20205;-75
2021/07/21 09:12:49;;;;;;;16.48;4.03;;;28.80;99.90;;;;;;5055416;28;20219;-73
2021/07/21 09:15:19;;;;;;;13.95;4.30;;;28.70;99.90;;;;;;5042700;28;20187;-75
2021/07/21 09:18:05;;;;;;;12.65;4.53;;;28.90;99.90;;;;;;5016964;28;20202;-74
2021/07/21 09:20:47;;;;;;;15.80;3.95;;;28.90;99.90;;;;;;5028797;28;20251;-75
2021/07/21 09:23:14;;;;;;;12.82;4.20;;;28.80;99.90;;;;;;5040856;28;20191;-74
2021/07/21 09:25:43;;;;;;;12.73;4.43;;;28.80;99.90;;;;;;5025248;28;20207;-74
2021/07/21 09:28:13;;;;;;;11.45;4.28;;;29.00;99.90;;;;;;5043626;28;20823;-74
2021/07/21 09:30:46;;;;;;;13.82;4.40;;;29.00;99.90;;;;;;5045245;28;20215;-75
2021/07/21 09:33:21;;;;;;;13.75;4.10;;;29.00;99.90;;;;;;5029741;28;20213;-74
2021/07/21 09:35:55;;;;;;;15.35;4.60;;;29.00;99.90;;;;;;5023537;28;20186;-76
2021/07/21 09:38:32;;;;;;;16.77;3.83;;;29.20;99.90;;;;;;5037916;28;20236;-73
2021/07/21 09:41:06;;;;;;;12.90;4.13;;;29.40;99.90;;;;;;5025090;28;20191;-75
2021/07/21 09:43:35;;;;;;;13.10;4.13;;;29.40;99.90;;;;;;5038106;28;20223;-75
2021/07/21 09:46:06;;;;;;;15.48;4.40;;;29.40;99.90;;;;;;5038503;28;20214;-73
2021/07/21 09:48:46;;;;;;;15.98;4.15;;;29.50;99.90;;;;;;5035438;28;20662;-74
2021/07/21 09:51:38;;;;;;;11.65;4.15;;;29.60;99.90;;;;;;5027084;28;20195;-73
2021/07/21 09:54:20;;;;;;;16.23;4.57;;;29.60;99.90;;;;;;5027783;28;20227;-74
2021/07/21 09:56:51;;;;;;;16.85;4.85;;;29.70;99.90;;;;;;5041956;28;20305;-74
2021/07/21 09:59:29;;;;;;;13.88;3.85;;;29.90;99.90;;;;;;5041326;28;20195;-75
2021/07/21 10:01:56;;;;;;;18.10;4.85;;;29.90;99.90;;;;;;5024074;28;20184;-74
2021/07/21 10:04:39;;;;;;;13.00;4.03;;;29.80;99.90;;;;;;5042332;28;20206;-75
2021/07/21 10:09:52;;;;;;;13.15;4.43;;;30.00;99.90;;;;;;5039062;28;20184;-76
2021/07/21 10:12:19;;;;;;;12.55;3.95;;;30.10;99.90;;;;;;5058552;28;20313;-76
2021/07/21 10:15:00;;;;;;;11.80;4.53;;;30.20;99.90;;;;;;5041198;28;20179;-76
2021/07/21 10:17:27;;;;;;;14.63;3.80;;;30.30;99.90;;;;;;5037042;28;20218;-76
2021/07/21 10:19:55;;;;;;;13.45;4.10;;;30.30;99.90;;;;;;5035629;28;20198;-75
2021/07/21 10:22:22;;;;;;;11.80;4.38;;;30.20;99.90;;;;;;5025247;28;20191;-73
2021/07/21 10:24:50;;;;;;;10.68;5.30;;;30.30;99.90;;;;;;5044739;28;20493;-74
2021/07/21 10:27:17;;;;;;;13.90;4.38;;;30.50;99.90;;;;;;5056000;28;20195;-75
2021/07/21 10:29:45;;;;;;;15.15;4.88;;;31.20;99.90;;;;;;5041684;28;20202;-73
2021/07/21 10:32:16;;;;;;;8.70;3.78;;;32.70;99.90;;;;;;5041476;28;20214;-74
2021/07/21 10:34:48;;;;;;;17.58;4.22;;;32.70;99.90;;;;;;5020691;28;20311;-74
2021/07/21 10:37:16;;;;;;;12.82;4.45;;;32.20;99.90;;;;;;5043427;28;20937;-74
2021/07/21 10:39:44;;;;;;;11.57;4.60;;;31.60;99.90;;;;;;5040919;28;20221;-75
2021/07/21 10:42:18;;;;;;;9.75;3.80;;;31.20;99.90;;;;;;5024923;28;20247;-75
2021/07/21 10:45:22;;;;;;;13.95;4.50;;;31.10;99.90;;;;;;5056488;28;20242;-75
2021/07/21 10:47:53;;;;;;;10.23;4.57;;;30.90;99.90;;;;;;5031529;28;20190;-74
2021/07/21 10:59:18;;;;;;;14.63;4.88;;;30.60;99.90;;;;;;5039913;28;20192;-75
2021/07/21 11:01:52;;;;;;;16.70;4.88;;;30.80;99.90;;;;;;5025623;28;20188;-74
2021/07/21 11:04:22;;;;;;;14.20;4.57;;;30.60;99.90;;;;;;5052698;28;20194;-74
2021/07/21 11:06:51;;;;;;;10.40;3.95;;;30.80;99.90;;;;;;5040332;28;20192;-74
2021/07/21 11:09:25;;;;;;;12.30;4.45;;;30.80;99.90;;;;;;5039535;28;20188;-74
2021/07/21 11:11:57;;;;;;;14.57;4.90;;;30.90;99.90;;;;;;5044116;28;20217;-74
2021/07/21 11:14:34;;;;;;;14.18;4.07;;;30.80;99.90;;;;;;5058454;28;20212;-73
2021/07/21 11:17:06;;;;;;;11.10;4.13;;;31.00;99.90;;;;;;5039568;28;20187;-74
2021/07/21 11:19:50;;;;;;;11.63;4.22;;;31.00;99.90;;;;;;5039860;28;20254;-74
2021/07/21 11:22:20;;;;;;;15.45;4.50;;;31.20;99.90;;;;;;5038679;28;20188;-73
2021/07/21 11:25:17;;;;;;;14.52;4.75;;;31.00;99.90;;;;;;5025264;28;20183;-74
2021/07/21 11:27:59;;;;;;;15.60;4.95;;;30.90;99.90;;;;;;5057987;28;20244;-74
2021/07/21 11:30:58;;;;;;;13.13;4.57;;;30.80;99.90;;;;;;5045402;28;20202;-73
2021/07/21 11:34:01;;;;;;;14.07;4.50;;;31.00;99.90;;;;;;5060351;28;20245;-76
2021/07/21 11:36:39;;;;;;;15.30;4.10;;;31.00;99.90;;;;;;5023988;28;20179;-76
2021/07/21 11:39:56;;;;;;;21.02;5.68;;;30.80;99.90;;;;;;5042579;28;20228;-76
2021/07/21 11:42:34;;;;;;;16.10;5.00;;;30.80;99.90;;;;;;5045296;28;20203;-75
2021/07/21 11:45:07;;;;;;;16.33;4.32;;;30.90;99.90;;;;;;5040893;28;20203;-75
2021/07/21 11:47:41;;;;;;;13.93;4.15;;;30.90;99.90;;;;;;5024413;28;20400;-77
2021/07/21 11:50:23;;;;;;;16.38;4.40;;;30.80;99.90;;;;;;5026261;28;20183;-75
2021/07/21 11:53:09;;;;;;;17.50;4.45;;;30.70;99.90;;;;;;5030978;28;20200;-75
2021/07/21 11:55:38;;;;;;;11.90;4.03;;;30.70;99.90;;;;;;5029206;28;20246;-75
2021/07/21 11:58:17;;;;;;;15.60;4.15;;;30.90;99.90;;;;;;5027512;28;20242;-77
2021/07/21 12:00:54;;;;;;;12.48;4.65;;;30.90;99.90;;;;;;5041853;28;20187;-75
2021/07/21 12:03:21;;;;;;;19.98;4.15;;;30.80;99.90;;;;;;5023692;28;20184;-75
2021/07/21 12:05:55;;;;;;;18.13;4.70;;;30.90;99.90;;;;;;5044385;28;20184;-76
2021/07/21 12:08:23;;;;;;;12.40;3.75;;;30.80;99.90;;;;;;5040028;28;20202;-75
2021/07/21 12:10:50;;;;;;;18.13;4.57;;;30.70;99.90;;;;;;5043840;28;20198;-77
2021/07/21 12:13:21;;;;;;;13.95;4.50;;;30.70;99.90;;;;;;5040703;28;20224;-77
2021/07/21 12:16:01;;;;;;;16.25;4.25;;;30.70;99.90;;;;;;5041439;28;20187;-75
2021/07/21 12:18:29;;;;;;;15.40;4.57;;;30.70;99.90;;;;;;5042710;28;20190;-76
2021/07/21 12:21:09;;;;;;;10.43;3.83;;;30.60;99.90;;;;;;5043482;28;20257;-76
2021/07/21 12:23:36;;;;;;;14.43;4.20;;;30.50;99.90;;;;;;5046969;28;20226;-76
2021/07/21 12:26:09;;;;;;;16.85;5.03;;;30.50;99.90;;;;;;5025062;28;20184;-75
2021/07/21 12:28:36;;;;;;;14.20;4.15;;;30.40;99.90;;;;;;5057553;28;20199;-76
2021/07/21 12:31:03;;;;;;;11.82;4.00;;;30.40;99.90;;;;;;5025763;28;20323;-77
2021/07/21 12:33:29;;;;;;;21.02;4.50;;;30.40;99.90;;;;;;5042776;28;20196;-75
2021/07/21 12:36:07;;;;;;;15.70;3.70;;;30.40;99.90;;;;;;5042180;28;20537;-76
2021/07/21 12:38:42;;;;;;;14.63;4.15;;;30.40;99.90;;;;;;5040503;28;20193;-75
2021/07/21 12:41:11;;;;;;;15.85;4.50;;;30.50;99.90;;;;;;5043755;28;20178;-74
2021/07/21 12:43:39;;;;;;;16.17;4.70;;;30.50;99.90;;;;;;5041204;28;20196;-76
2021/07/21 12:46:18;;;;;;;12.38;3.97;;;30.40;99.90;;;;;;5028456;28;20306;-77
2021/07/21 12:48:55;;;;;;;16.55;4.57;;;30.40;99.90;;;;;;5043271;28;20192;-76
2021/07/21 12:51:21;;;;;;;12.43;4.10;;;30.30;99.90;;;;;;5041762;28;20202;-75
2021/07/21 12:53:49;;;;;;;16.92;4.93;;;30.50;99.90;;;;;;5035826;28;20250;-76
2021/07/21 12:56:18;;;;;;;12.90;4.40;;;30.50;99.90;;;;;;5040561;28;20761;-76
2021/07/21 12:59:04;;;;;;;12.57;4.25;;;30.40;99.90;;;;;;5041289;28;20249;-76
2021/07/21 13:01:32;;;;;;;12.45;3.90;;;30.10;99.90;;;;;;5024699;28;20206;-76
2021/07/21 13:03:59;;;;;;;14.45;3.72;;;29.80;99.90;;;;;;5041506;28;20184;-76
2021/07/21 13:06:37;;;;;;;17.48;4.50;;;29.80;99.90;;;;;;5027344;28;20214;-76
2021/07/21 13:09:09;;;;;;;11.43;4.00;;;30.00;99.90;;;;;;5037534;28;20713;-76
2021/07/21 13:11:37;;;;;;;14.07;4.63;;;29.90;99.90;;;;;;5023914;28;20839;-76